N23MD KOPF-KVNC
Flight info
| Callsign | N23MD |
|---|---|
| Flight time | 0h 45m |
| Altitude | 20000 |
| Route | BNGOS4 COREA LBELL ROGAN |
| Aircraft | P180/L-SBDFGM3RWXY/LB1 |
Departure
| Time | 2026-05-08 22:30 |
|---|---|
| Airport | Miami-Opa Locka Executive Airport (KOPF) |
Arrival
| Time | 2026-05-08 23:15 |
|---|---|
| Airport | Venice Municipal Airport (KVNC) |
| Time | Latitude | Longitude | Altitude | Speed | Heading |
|---|---|---|---|---|---|
| 2026-05-08 22:05 | 25.90672 | -80.27585 | 13 ft | 0 kts | 122° |
| 2026-05-08 22:20 | 25.90662 | -80.27571 | 12 ft | 4 kts | 141° |
| 2026-05-08 22:20 | 25.90627 | -80.27578 | 13 ft | 7 kts | 212° |
| 2026-05-08 22:21 | 25.90614 | -80.27630 | 14 ft | 10 kts | 304° |
| 2026-05-08 22:21 | 25.90660 | -80.27700 | 15 ft | 11 kts | 305° |
| 2026-05-08 22:21 | 25.90640 | -80.27758 | 16 ft | 11 kts | 216° |
| 2026-05-08 22:21 | 25.90591 | -80.27841 | 17 ft | 13 kts | 277° |
| 2026-05-08 22:22 | 25.90657 | -80.27925 | 16 ft | 17 kts | 310° |
| 2026-05-08 22:22 | 25.90727 | -80.28050 | 15 ft | 20 kts | 302° |
| 2026-05-08 22:22 | 25.90807 | -80.28190 | 16 ft | 23 kts | 302° |
| 2026-05-08 22:22 | 25.90898 | -80.28355 | 13 ft | 27 kts | 301° |
| 2026-05-08 22:23 | 25.90975 | -80.28491 | 14 ft | 17 kts | 300° |
| 2026-05-08 22:23 | 25.91044 | -80.28618 | 14 ft | 21 kts | 302° |
| 2026-05-08 22:23 | 25.91115 | -80.28742 | 17 ft | 15 kts | 302° |
| 2026-05-08 22:23 | 25.91154 | -80.28836 | 17 ft | 10 kts | 330° |
| 2026-05-08 22:24 | 25.91166 | -80.28840 | 17 ft | 0 kts | 356° |
| 2026-05-08 22:28 | 25.91173 | -80.28839 | 17 ft | 4 kts | 0° |
| 2026-05-08 22:28 | 25.91223 | -80.28841 | 17 ft | 11 kts | 0° |
| 2026-05-08 22:28 | 25.91268 | -80.28806 | 17 ft | 0 kts | 87° |
| 2026-05-08 22:29 | 25.91269 | -80.28795 | 17 ft | 18 kts | 87° |
| 2026-05-08 22:29 | 25.91289 | -80.28347 | 10 ft | 90 kts | 85° |
| 2026-05-08 22:29 | 25.91328 | -80.27457 | 226 ft | 132 kts | 90° |
| 2026-05-08 22:30 | 25.91324 | -80.26399 | 652 ft | 140 kts | 94° |
| 2026-05-08 22:30 | 25.91280 | -80.25308 | 1293 ft | 146 kts | 84° |
| 2026-05-08 22:30 | 25.91436 | -80.24151 | 2064 ft | 152 kts | 83° |
| 2026-05-08 22:30 | 25.91730 | -80.23007 | 2774 ft | 164 kts | 61° |
| 2026-05-08 22:31 | 25.92529 | -80.22053 | 3511 ft | 170 kts | 33° |
| 2026-05-08 22:31 | 25.93615 | -80.21588 | 4207 ft | 175 kts | 5° |
| 2026-05-08 22:31 | 25.94804 | -80.21734 | 4946 ft | 170 kts | 337° |
| 2026-05-08 22:31 | 25.95788 | -80.22448 | 5700 ft | 171 kts | 311° |
| 2026-05-08 22:32 | 25.96473 | -80.23543 | 6453 ft | 176 kts | 301° |
| 2026-05-08 22:32 | 25.97144 | -80.24711 | 7119 ft | 182 kts | 301° |
| 2026-05-08 22:32 | 25.97841 | -80.25906 | 7799 ft | 186 kts | 300° |
| 2026-05-08 22:32 | 25.98551 | -80.27132 | 8450 ft | 191 kts | 297° |
| 2026-05-08 22:33 | 25.99278 | -80.28392 | 9102 ft | 196 kts | 298° |
| 2026-05-08 22:33 | 26.00010 | -80.29655 | 9761 ft | 199 kts | 298° |
| 2026-05-08 22:33 | 26.00766 | -80.30959 | 10356 ft | 202 kts | 297° |
| 2026-05-08 22:33 | 26.01527 | -80.32273 | 10983 ft | 202 kts | 298° |
| 2026-05-08 22:34 | 26.02283 | -80.33578 | 11624 ft | 202 kts | 297° |
| 2026-05-08 22:34 | 26.03044 | -80.34891 | 12352 ft | 200 kts | 298° |
| 2026-05-08 22:34 | 26.03797 | -80.36195 | 13024 ft | 200 kts | 298° |
| 2026-05-08 22:34 | 26.04538 | -80.37480 | 13676 ft | 201 kts | 300° |
| 2026-05-08 22:35 | 26.05304 | -80.38806 | 14243 ft | 201 kts | 300° |
| 2026-05-08 22:35 | 26.06056 | -80.40103 | 14762 ft | 203 kts | 300° |
| 2026-05-08 22:35 | 26.06821 | -80.41428 | 15294 ft | 204 kts | 298° |
| 2026-05-08 22:35 | 26.07583 | -80.42751 | 15840 ft | 203 kts | 299° |
| 2026-05-08 22:36 | 26.08349 | -80.44080 | 16330 ft | 205 kts | 299° |
| 2026-05-08 22:36 | 26.09122 | -80.45417 | 16833 ft | 206 kts | 299° |
| 2026-05-08 22:36 | 26.09895 | -80.46756 | 17317 ft | 206 kts | 299° |
| 2026-05-08 22:36 | 26.10674 | -80.48108 | 17787 ft | 208 kts | 299° |
| 2026-05-08 22:37 | 26.11457 | -80.49465 | 18255 ft | 209 kts | 299° |
| 2026-05-08 22:37 | 26.12231 | -80.50809 | 18664 ft | 209 kts | 299° |
| 2026-05-08 22:37 | 26.13011 | -80.52162 | 19082 ft | 208 kts | 298° |
| 2026-05-08 22:37 | 26.13796 | -80.53525 | 19490 ft | 208 kts | 298° |
| 2026-05-08 22:38 | 26.14580 | -80.54886 | 19850 ft | 211 kts | 298° |
| 2026-05-08 22:38 | 26.15395 | -80.56309 | 19954 ft | 226 kts | 298° |
| 2026-05-08 22:38 | 26.16270 | -80.57835 | 19975 ft | 242 kts | 298° |
| 2026-05-08 22:38 | 26.17203 | -80.59455 | 19983 ft | 255 kts | 299° |
| 2026-05-08 22:39 | 26.18184 | -80.61156 | 19983 ft | 267 kts | 299° |
| 2026-05-08 22:39 | 26.19191 | -80.62905 | 19975 ft | 276 kts | 299° |
| 2026-05-08 22:39 | 26.20241 | -80.64733 | 19979 ft | 284 kts | 299° |
| 2026-05-08 22:39 | 26.21316 | -80.66604 | 19979 ft | 290 kts | 299° |
| 2026-05-08 22:40 | 26.22412 | -80.68513 | 19976 ft | 295 kts | 299° |
| 2026-05-08 22:40 | 26.23523 | -80.70449 | 19974 ft | 299 kts | 299° |
| 2026-05-08 22:40 | 26.24648 | -80.72409 | 19975 ft | 302 kts | 299° |
| 2026-05-08 22:40 | 26.25782 | -80.74387 | 19975 ft | 304 kts | 299° |
| 2026-05-08 22:41 | 26.26924 | -80.76379 | 19969 ft | 306 kts | 299° |
| 2026-05-08 22:41 | 26.28074 | -80.78384 | 19967 ft | 308 kts | 299° |
| 2026-05-08 22:41 | 26.29210 | -80.80369 | 19968 ft | 308 kts | 299° |
| 2026-05-08 22:41 | 26.30364 | -80.82388 | 19967 ft | 309 kts | 299° |
| 2026-05-08 22:42 | 26.31520 | -80.84407 | 19967 ft | 310 kts | 299° |
| 2026-05-08 22:42 | 26.32682 | -80.86438 | 19966 ft | 310 kts | 299° |
| 2026-05-08 22:42 | 26.33840 | -80.88465 | 19969 ft | 311 kts | 299° |
| 2026-05-08 22:42 | 26.35003 | -80.90500 | 19970 ft | 311 kts | 299° |
| 2026-05-08 22:43 | 26.36188 | -80.92518 | 19960 ft | 313 kts | 302° |
| 2026-05-08 22:43 | 26.37724 | -80.94267 | 19956 ft | 317 kts | 313° |
| 2026-05-08 22:43 | 26.39351 | -80.95930 | 19956 ft | 317 kts | 313° |
| 2026-05-08 22:43 | 26.40939 | -80.97586 | 19957 ft | 317 kts | 312° |
| 2026-05-08 22:44 | 26.42536 | -80.99279 | 19957 ft | 317 kts | 312° |
| 2026-05-08 22:44 | 26.44139 | -81.00971 | 19958 ft | 317 kts | 312° |
| 2026-05-08 22:44 | 26.45747 | -81.02653 | 19958 ft | 317 kts | 312° |
| 2026-05-08 22:44 | 26.47358 | -81.04340 | 19964 ft | 317 kts | 312° |
| 2026-05-08 22:45 | 26.48963 | -81.06029 | 19961 ft | 317 kts | 312° |
| 2026-05-08 22:45 | 26.50545 | -81.07695 | 19962 ft | 317 kts | 312° |
| 2026-05-08 22:45 | 26.52175 | -81.09410 | 19962 ft | 317 kts | 312° |
| 2026-05-08 22:45 | 26.53760 | -81.11078 | 19961 ft | 317 kts | 312° |
| 2026-05-08 22:46 | 26.55365 | -81.12771 | 19958 ft | 317 kts | 312° |
| 2026-05-08 22:46 | 26.56970 | -81.14464 | 19958 ft | 317 kts | 312° |
| 2026-05-08 22:46 | 26.58574 | -81.16156 | 19958 ft | 317 kts | 312° |
| 2026-05-08 22:46 | 26.60180 | -81.17850 | 19962 ft | 317 kts | 311° |
| 2026-05-08 22:47 | 26.61783 | -81.19544 | 19962 ft | 317 kts | 311° |
| 2026-05-08 22:47 | 26.63386 | -81.21235 | 19962 ft | 317 kts | 312° |
| 2026-05-08 22:47 | 26.65080 | -81.22820 | 19961 ft | 319 kts | 316° |
| 2026-05-08 22:47 | 26.66778 | -81.24367 | 19962 ft | 318 kts | 315° |
| 2026-05-08 22:48 | 26.68486 | -81.25943 | 19959 ft | 318 kts | 315° |
| 2026-05-08 22:48 | 26.70192 | -81.27516 | 19958 ft | 316 kts | 315° |
| 2026-05-08 22:48 | 26.71878 | -81.29067 | 19959 ft | 312 kts | 315° |
| 2026-05-08 22:48 | 26.73543 | -81.30598 | 19957 ft | 309 kts | 315° |
| 2026-05-08 22:49 | 26.75194 | -81.32116 | 19958 ft | 306 kts | 315° |
| 2026-05-08 22:49 | 26.78460 | -81.35122 | 19949 ft | 302 kts | 315° |
| 2026-05-08 22:49 | 26.80076 | -81.36610 | 19953 ft | 301 kts | 315° |
| 2026-05-08 22:50 | 26.81669 | -81.38077 | 19952 ft | 300 kts | 315° |
| 2026-05-08 22:50 | 26.83276 | -81.39564 | 19947 ft | 298 kts | 313° |
| 2026-05-08 22:50 | 26.84431 | -81.41399 | 19946 ft | 285 kts | 286° |
| 2026-05-08 22:50 | 26.84605 | -81.43564 | 19947 ft | 280 kts | 263° |
| 2026-05-08 22:51 | 26.84319 | -81.45714 | 19946 ft | 279 kts | 260° |
| 2026-05-08 22:51 | 26.84057 | -81.47862 | 19944 ft | 279 kts | 263° |
| 2026-05-08 22:51 | 26.84004 | -81.50032 | 19948 ft | 280 kts | 271° |
| 2026-05-08 22:51 | 26.84247 | -81.52166 | 19943 ft | 281 kts | 277° |
| 2026-05-08 22:52 | 26.84593 | -81.54316 | 19947 ft | 280 kts | 277° |
| 2026-05-08 22:52 | 26.84863 | -81.56475 | 19952 ft | 280 kts | 274° |
| 2026-05-08 22:52 | 26.85078 | -81.58639 | 19952 ft | 280 kts | 274° |
| 2026-05-08 22:52 | 26.85309 | -81.60800 | 19952 ft | 280 kts | 275° |
| 2026-05-08 22:53 | 26.85564 | -81.62958 | 19951 ft | 280 kts | 275° |
| 2026-05-08 22:53 | 26.85818 | -81.65120 | 19953 ft | 280 kts | 275° |
| 2026-05-08 22:53 | 26.86059 | -81.67250 | 19958 ft | 280 kts | 275° |
| 2026-05-08 22:53 | 26.86304 | -81.69439 | 19958 ft | 280 kts | 275° |
| 2026-05-08 22:54 | 26.86546 | -81.71569 | 19963 ft | 279 kts | 275° |
| 2026-05-08 22:54 | 26.86792 | -81.73741 | 19747 ft | 284 kts | 275° |
| 2026-05-08 22:54 | 26.87043 | -81.75944 | 19426 ft | 287 kts | 275° |
| 2026-05-08 22:54 | 26.87295 | -81.78172 | 19108 ft | 290 kts | 275° |
| 2026-05-08 22:55 | 26.87548 | -81.80421 | 18792 ft | 292 kts | 275° |
| 2026-05-08 22:55 | 26.87803 | -81.82683 | 18484 ft | 293 kts | 274° |
| 2026-05-08 22:55 | 26.88059 | -81.84953 | 18160 ft | 295 kts | 274° |
| 2026-05-08 22:55 | 26.88311 | -81.87205 | 17806 ft | 295 kts | 274° |
| 2026-05-08 22:56 | 26.88567 | -81.89490 | 17452 ft | 296 kts | 275° |
| 2026-05-08 22:56 | 26.88824 | -81.91777 | 17105 ft | 296 kts | 275° |
| 2026-05-08 22:56 | 26.89080 | -81.94070 | 16756 ft | 297 kts | 275° |
| 2026-05-08 22:56 | 26.89335 | -81.96356 | 16414 ft | 297 kts | 275° |
| 2026-05-08 22:57 | 26.89592 | -81.98661 | 16075 ft | 297 kts | 275° |
| 2026-05-08 22:57 | 26.89848 | -82.00960 | 15739 ft | 298 kts | 275° |
| 2026-05-08 22:57 | 26.90104 | -82.03261 | 15407 ft | 298 kts | 275° |
| 2026-05-08 22:57 | 26.90356 | -82.05534 | 15084 ft | 298 kts | 275° |
| 2026-05-08 22:58 | 26.90612 | -82.07838 | 14760 ft | 298 kts | 275° |
| 2026-05-08 22:58 | 26.90867 | -82.10143 | 14439 ft | 299 kts | 275° |
| 2026-05-08 22:58 | 26.91122 | -82.12449 | 14120 ft | 297 kts | 275° |
| 2026-05-08 22:58 | 26.91374 | -82.14732 | 13804 ft | 294 kts | 275° |
| 2026-05-08 22:59 | 26.91623 | -82.16996 | 13453 ft | 292 kts | 275° |
| 2026-05-08 22:59 | 26.91867 | -82.19239 | 13101 ft | 291 kts | 275° |
| 2026-05-08 22:59 | 26.92109 | -82.21495 | 12750 ft | 290 kts | 275° |
| 2026-05-08 22:59 | 26.92346 | -82.23734 | 12404 ft | 289 kts | 274° |
| 2026-05-08 23:00 | 26.92577 | -82.25933 | 12066 ft | 288 kts | 274° |
| 2026-05-08 23:00 | 26.92807 | -82.28159 | 11727 ft | 287 kts | 274° |
| 2026-05-08 23:00 | 26.93034 | -82.30383 | 11393 ft | 287 kts | 274° |
| 2026-05-08 23:00 | 26.93347 | -82.32585 | 11059 ft | 288 kts | 284° |
| 2026-05-08 23:01 | 26.94237 | -82.34585 | 10729 ft | 286 kts | 298° |
| 2026-05-08 23:01 | 26.95412 | -82.36368 | 10389 ft | 286 kts | 313° |
| 2026-05-08 23:01 | 26.97149 | -82.37444 | 10055 ft | 291 kts | 342° |
| 2026-05-08 23:01 | 26.99159 | -82.37412 | 9702 ft | 290 kts | 14° |
| 2026-05-08 23:02 | 27.00836 | -82.36303 | 9325 ft | 283 kts | 46° |
| 2026-05-08 23:02 | 27.01859 | -82.34468 | 8966 ft | 274 kts | 68° |
| 2026-05-08 23:02 | 27.02570 | -82.32502 | 8492 ft | 273 kts | 71° |
| 2026-05-08 23:02 | 27.02912 | -82.30431 | 7930 ft | 271 kts | 90° |
| 2026-05-08 23:03 | 27.02719 | -82.28353 | 7379 ft | 267 kts | 109° |
| 2026-05-08 23:03 | 27.01947 | -82.26453 | 6593 ft | 271 kts | 119° |
| 2026-05-08 23:03 | 27.00959 | -82.24633 | 5708 ft | 275 kts | 122° |
| 2026-05-08 23:03 | 26.99920 | -82.22867 | 4933 ft | 274 kts | 123° |
| 2026-05-08 23:04 | 26.98708 | -82.21233 | 4124 ft | 272 kts | 132° |
| 2026-05-08 23:04 | 26.97421 | -82.19738 | 3682 ft | 259 kts | 134° |
| 2026-05-08 23:04 | 26.96178 | -82.18338 | 3298 ft | 248 kts | 135° |
| 2026-05-08 23:04 | 26.94974 | -82.17000 | 2924 ft | 239 kts | 138° |
| 2026-05-08 23:05 | 26.93597 | -82.16080 | 2689 ft | 227 kts | 163° |
| 2026-05-08 23:05 | 26.92168 | -82.15893 | 2499 ft | 192 kts | 184° |
| 2026-05-08 23:05 | 26.90948 | -82.16208 | 2290 ft | 166 kts | 202° |
| 2026-05-08 23:05 | 26.90030 | -82.16833 | 2154 ft | 150 kts | 226° |
| 2026-05-08 23:06 | 26.89557 | -82.17800 | 2114 ft | 135 kts | 251° |
| 2026-05-08 23:06 | 26.89591 | -82.18792 | 2088 ft | 125 kts | 286° |
| 2026-05-08 23:06 | 26.89871 | -82.19687 | 2089 ft | 118 kts | 287° |
| 2026-05-08 23:06 | 26.90124 | -82.20538 | 2088 ft | 118 kts | 286° |
| 2026-05-08 23:07 | 26.90425 | -82.21420 | 2092 ft | 126 kts | 300° |
| 2026-05-08 23:07 | 26.90996 | -82.22190 | 2097 ft | 130 kts | 308° |
| 2026-05-08 23:07 | 26.91455 | -82.23051 | 2110 ft | 130 kts | 289° |
| 2026-05-08 23:07 | 26.91771 | -82.24001 | 2108 ft | 133 kts | 288° |
| 2026-05-08 23:08 | 26.92082 | -82.24975 | 2100 ft | 133 kts | 287° |
| 2026-05-08 23:08 | 26.92371 | -82.25950 | 2103 ft | 131 kts | 287° |
| 2026-05-08 23:08 | 26.92652 | -82.26887 | 2100 ft | 122 kts | 286° |
| 2026-05-08 23:08 | 26.92922 | -82.27795 | 2099 ft | 125 kts | 286° |
| 2026-05-08 23:09 | 26.93263 | -82.28684 | 2090 ft | 123 kts | 303° |
| 2026-05-08 23:09 | 26.93839 | -82.29395 | 2096 ft | 123 kts | 311° |
| 2026-05-08 23:09 | 26.94435 | -82.30087 | 2096 ft | 124 kts | 312° |
| 2026-05-08 23:09 | 26.95036 | -82.30762 | 2092 ft | 123 kts | 313° |
| 2026-05-08 23:10 | 26.95645 | -82.31442 | 2092 ft | 124 kts | 313° |
| 2026-05-08 23:10 | 26.96261 | -82.32126 | 2098 ft | 125 kts | 313° |
| 2026-05-08 23:10 | 26.96870 | -82.32797 | 2095 ft | 119 kts | 310° |
| 2026-05-08 23:10 | 26.97436 | -82.33427 | 2090 ft | 115 kts | 309° |
| 2026-05-08 23:11 | 26.98007 | -82.34058 | 2089 ft | 113 kts | 310° |
| 2026-05-08 23:11 | 26.98562 | -82.34676 | 2086 ft | 114 kts | 307° |
| 2026-05-08 23:11 | 26.99153 | -82.35332 | 1982 ft | 122 kts | 310° |
| 2026-05-08 23:11 | 26.99769 | -82.36003 | 1833 ft | 128 kts | 311° |
| 2026-05-08 23:12 | 27.00404 | -82.36700 | 1665 ft | 127 kts | 311° |
| 2026-05-08 23:12 | 27.01034 | -82.37398 | 1504 ft | 127 kts | 309° |
| 2026-05-08 23:12 | 27.01666 | -82.38096 | 1334 ft | 127 kts | 310° |
| 2026-05-08 23:12 | 27.02295 | -82.38792 | 1179 ft | 128 kts | 310° |
| 2026-05-08 23:13 | 27.02915 | -82.39473 | 1008 ft | 121 kts | 312° |
| 2026-05-08 23:13 | 27.03502 | -82.40127 | 870 ft | 119 kts | 311° |
| 2026-05-08 23:13 | 27.04087 | -82.40785 | 717 ft | 118 kts | 309° |
| 2026-05-08 23:13 | 27.04680 | -82.41437 | 577 ft | 123 kts | 310° |
| 2026-05-08 23:14 | 27.05293 | -82.42114 | 423 ft | 128 kts | 313° |
| 2026-05-08 23:14 | 27.05931 | -82.42818 | 239 ft | 127 kts | 310° |
| 2026-05-08 23:14 | 27.06550 | -82.43510 | 52 ft | 124 kts | 312° |
| 2026-05-08 23:14 | 27.07131 | -82.44164 | 18 ft | 114 kts | 311° |
| 2026-05-08 23:15 | 27.07498 | -82.44566 | 26 ft | 39 kts | 316° |
| 2026-05-08 23:15 | 27.07663 | -82.44684 | 27 ft | 21 kts | 15° |
| 2026-05-08 23:15 | 27.07725 | -82.44597 | 26 ft | 25 kts | 80° |
| 2026-05-08 23:15 | 27.07727 | -82.44360 | 24 ft | 4 kts | 102° |
| 2026-05-08 23:16 | 27.07731 | -82.44346 | 25 ft | 4 kts | 65° |
| 2026-05-08 23:16 | 27.07742 | -82.44303 | 27 ft | 7 kts | 60° |
| 2026-05-08 23:16 | 27.07756 | -82.44292 | 25 ft | 0 kts | 29° |